Time;durP1;ratioP1;P1;durP2;ratioP2;P2;SDS_P1;SDS_P2;PMS_P1;PMS_P2;Temp;Humidity;BMP_temperature;BMP_pressure;BME280_temperature;BME280_humidity;BME280_pressure;Samples;Min_cycle;Max_cycle;Signal;HPM_P1;HPM_P2
2022/08/07 00:00:18;;;;;;;2.35;0.80;;;;;;;15.57;37.40;96223.69;5062936;28;20191;-84
2022/08/07 00:02:43;;;;;;;3.90;0.93;;;;;;;15.57;37.47;96230.72;5048221;28;20768;-83
2022/08/07 00:05:08;;;;;;;0.68;0.60;;;;;;;15.53;37.58;96219.75;4994554;28;20203;-82
2022/08/07 00:07:34;;;;;;;0.77;0.50;;;;;;;15.55;37.56;96217.00;5022203;28;20175;-82
2022/08/07 00:09:59;;;;;;;0.70;0.60;;;;;;;15.57;37.45;96223.69;5024595;28;20248;-83
2022/08/07 00:12:24;;;;;;;2.10;0.65;;;;;;;15.54;37.80;96223.19;5018211;28;20192;-82
2022/08/07 00:14:50;;;;;;;0.65;0.65;;;;;;;15.49;37.68;96223.69;5005659;28;20295;-83
2022/08/07 00:17:15;;;;;;;2.30;1.00;;;;;;;15.46;37.68;96213.53;5021148;28;20172;-82
2022/08/07 00:19:41;;;;;;;0.70;0.57;;;;;;;15.49;37.87;96212.41;5030672;28;20626;-82
2022/08/07 00:22:06;;;;;;;0.75;0.60;;;;;;;15.48;37.79;96216.81;5029469;28;20643;-83
2022/08/07 00:24:33;;;;;;;2.33;0.60;;;;;;;15.45;37.71;96218.91;5018871;28;20280;-82
2022/08/07 00:26:58;;;;;;;1.35;0.75;;;;;;;15.43;37.78;96218.25;5005406;28;20179;-82
2022/08/07 00:29:25;;;;;;;1.38;0.70;;;;;;;15.57;37.77;96220.25;5033866;28;20180;-83
2022/08/07 00:31:53;;;;;;;5.65;0.90;;;;;;;15.55;37.62;96215.19;5005291;28;20193;-82
2022/08/07 00:34:18;;;;;;;1.58;0.90;;;;;;;15.66;37.42;96214.09;5022530;28;20202;-82
2022/08/07 00:36:43;;;;;;;1.95;0.60;;;;;;;15.60;37.31;96217.31;5036636;28;20181;-82
2022/08/07 00:39:09;;;;;;;2.33;1.20;;;;;;;15.66;37.35;96211.47;5021627;28;20194;-82
2022/08/07 00:41:35;;;;;;;1.35;0.70;;;;;;;15.63;37.64;96214.38;5038181;28;20650;-82
2022/08/07 00:44:00;;;;;;;4.53;0.70;;;;;;;15.68;37.64;96219.97;5019355;28;20206;-82
2022/08/07 00:46:25;;;;;;;1.00;0.70;;;;;;;15.59;37.93;96219.09;5021579;28;20209;-82
2022/08/07 00:48:51;;;;;;;2.08;0.93;;;;;;;15.60;37.58;96212.06;5030718;28;20204;-83
2022/08/07 00:51:16;;;;;;;1.02;0.70;;;;;;;15.55;37.87;96212.56;5019574;28;20180;-83
2022/08/07 00:53:41;;;;;;;2.28;0.80;;;;;;;15.42;38.48;96208.78;5021344;28;20455;-82
2022/08/07 00:56:10;;;;;;;3.15;0.88;;;;;;;15.39;38.51;96212.53;5028879;28;20178;-84
2022/08/07 00:58:35;;;;;;;2.72;0.70;;;;;;;15.31;38.36;96209.91;5019593;28;20210;-82
2022/08/07 01:01:01;;;;;;;0.80;0.70;;;;;;;15.30;38.74;96205.66;5021888;28;20202;-82
2022/08/07 01:03:29;;;;;;;0.60;0.60;;;;;;;15.19;38.79;96209.38;5028880;28;20211;-83
2022/08/07 01:05:54;;;;;;;1.73;0.80;;;;;;;15.16;39.13;96204.47;5039343;28;20269;-83
2022/08/07 01:08:20;;;;;;;1.20;0.80;;;;;;;15.01;39.47;96201.63;5038455;28;20267;-83
2022/08/07 01:10:46;;;;;;;2.83;0.70;;;;;;;14.94;39.61;96199.84;5025600;28;20274;-83
2022/08/07 01:13:11;;;;;;;2.15;0.57;;;;;;;14.93;39.65;96191.19;5021230;28;20207;-83
2022/08/07 01:15:37;;;;;;;3.50;0.60;;;;;;;14.89;40.00;96195.06;5022653;28;20191;-83
2022/08/07 01:18:02;;;;;;;0.52;0.50;;;;;;;14.99;40.01;96195.75;5029170;28;20198;-83
2022/08/07 01:20:32;;;;;;;2.03;0.63;;;;;;;14.87;40.31;96191.00;5004161;28;20725;-83
2022/08/07 01:22:58;;;;;;;1.15;0.60;;;;;;;14.81;40.45;96197.66;5017141;28;20622;-83
2022/08/07 01:25:24;;;;;;;1.73;0.70;;;;;;;14.74;40.44;96194.03;5020266;28;20245;-83
2022/08/07 01:27:49;;;;;;;2.25;0.70;;;;;;;14.68;40.16;96195.50;5021151;28;20198;-83
2022/08/07 01:30:15;;;;;;;1.10;0.85;;;;;;;14.78;40.64;96192.75;5036417;28;20258;-83
2022/08/07 01:32:40;;;;;;;1.98;0.70;;;;;;;14.73;40.83;96190.59;5020424;28;20213;-83
2022/08/07 01:35:06;;;;;;;1.00;0.75;;;;;;;14.66;41.11;96191.38;5038372;28;20182;-83
2022/08/07 01:37:31;;;;;;;0.88;0.68;;;;;;;14.67;41.31;96193.03;5000602;28;20278;-83
2022/08/07 01:40:00;;;;;;;0.80;0.57;;;;;;;14.58;41.36;96188.75;5004441;28;20218;-83
2022/08/07 01:42:26;;;;;;;2.90;0.68;;;;;;;14.52;41.60;96186.75;5027155;28;20245;-83
2022/08/07 01:44:51;;;;;;;1.52;0.57;;;;;;;14.52;41.49;96189.38;5012772;28;20203;-82
2022/08/07 01:47:17;;;;;;;2.33;0.70;;;;;;;14.51;41.70;96193.78;5019044;28;20187;-83
2022/08/07 01:49:42;;;;;;;0.98;0.55;;;;;;;14.52;41.69;96192.00;5019582;28;20191;-83
2022/08/07 01:52:08;;;;;;;1.33;0.60;;;;;;;14.49;42.09;96192.28;5027948;28;20690;-84
2022/08/07 01:54:36;;;;;;;1.77;0.68;;;;;;;14.52;42.09;96186.75;5020769;28;20198;-83
2022/08/07 01:57:07;;;;;;;0.68;0.65;;;;;;;14.48;42.02;96181.00;5030740;28;20207;-84
2022/08/07 01:59:40;;;;;;;2.05;0.80;;;;;;;14.60;41.68;96181.56;5018969;28;20206;-83
2022/08/07 02:02:08;;;;;;;0.90;0.60;;;;;;;14.46;42.32;96188.19;5019588;28;20678;-83
2022/08/07 02:04:50;;;;;;;2.08;0.70;;;;;;;14.56;42.13;96182.84;5016502;28;20578;-83
2022/08/07 02:07:16;;;;;;;0.90;0.70;;;;;;;14.50;42.04;96175.66;5020091;28;20182;-84
2022/08/07 02:09:42;;;;;;;2.17;0.70;;;;;;;14.51;42.31;96175.50;5004804;28;20197;-83
2022/08/07 02:12:17;;;;;;;3.20;0.70;;;;;;;14.37;42.72;96178.63;5038660;28;20681;-83
2022/08/07 02:14:45;;;;;;;1.85;0.60;;;;;;;14.50;42.43;96178.25;5002075;28;20227;-83
2022/08/07 02:17:12;;;;;;;3.97;0.80;;;;;;;14.48;42.72;96174.97;5019462;28;20179;-82
2022/08/07 02:19:40;;;;;;;1.23;0.80;;;;;;;14.43;42.52;96162.34;5029948;28;20208;-83
2022/08/07 02:22:06;;;;;;;0.57;0.50;;;;;;;14.42;42.97;96164.16;5020375;28;20190;-82
2022/08/07 02:24:31;;;;;;;1.88;0.60;;;;;;;14.33;42.95;96169.50;5037808;28;20217;-83
2022/08/07 02:26:58;;;;;;;0.83;0.60;;;;;;;14.45;42.84;96168.25;5014237;28;20183;-83
2022/08/07 02:29:24;;;;;;;2.47;0.85;;;;;;;14.33;43.31;96167.69;5020674;28;20549;-83
2022/08/07 02:31:50;;;;;;;1.17;0.80;;;;;;;14.30;43.39;96161.94;5037990;28;20206;-82
2022/08/07 02:34:15;;;;;;;1.10;0.98;;;;;;;14.33;43.32;96165.09;5014952;28;20232;-82
2022/08/07 02:36:41;;;;;;;1.13;0.63;;;;;;;14.30;43.73;96159.34;5026880;28;20189;-84
2022/08/07 02:39:07;;;;;;;1.08;0.70;;;;;;;14.24;43.95;96163.41;5060563;28;20238;-84
2022/08/07 02:41:33;;;;;;;0.60;0.60;;;;;;;14.20;44.17;96154.22;5042481;28;20769;-84
2022/08/07 02:43:59;;;;;;;1.02;0.73;;;;;;;14.21;44.02;96158.47;5044380;28;20202;-85
2022/08/07 02:46:26;;;;;;;3.07;0.70;;;;;;;14.13;44.46;96150.59;5057014;28;20242;-84
2022/08/07 02:48:51;;;;;;;2.60;0.77;;;;;;;14.06;44.75;96149.59;5035295;28;20254;-84
2022/08/07 02:51:18;;;;;;;1.00;0.90;;;;;;;14.01;45.08;96154.44;5036486;28;20191;-84
2022/08/07 02:53:45;;;;;;;5.23;0.80;;;;;;;13.93;45.31;96151.78;5030888;28;20693;-85
2022/08/07 02:56:12;;;;;;;0.60;0.60;;;;;;;13.84;45.99;96148.28;5005159;28;20207;-84
2022/08/07 02:58:38;;;;;;;1.33;0.80;;;;;;;13.83;45.81;96149.25;5026159;28;20574;-84
2022/08/07 03:01:04;;;;;;;1.83;0.75;;;;;;;13.94;45.75;96142.97;5025840;28;20286;-84
2022/08/07 03:03:32;;;;;;;1.10;0.70;;;;;;;13.88;45.58;96141.81;5044235;28;20268;-84
2022/08/07 03:05:58;;;;;;;1.02;0.70;;;;;;;13.85;45.62;96136.88;5025432;28;20204;-84
2022/08/07 03:08:23;;;;;;;2.67;0.90;;;;;;;13.86;45.68;96139.31;5026582;28;20193;-83
2022/08/07 03:10:49;;;;;;;2.63;0.70;;;;;;;13.96;45.50;96138.41;5008733;28;20175;-83
2022/08/07 03:13:14;;;;;;;1.30;1.00;;;;;;;13.96;45.66;96139.25;5026513;28;20701;-83
2022/08/07 03:15:40;;;;;;;0.83;0.70;;;;;;;14.03;45.33;96139.44;5023095;28;20179;-84
2022/08/07 03:18:05;;;;;;;2.67;0.85;;;;;;;13.97;45.51;96138.28;5041820;28;20183;-83
2022/08/07 03:20:32;;;;;;;1.37;0.60;;;;;;;13.91;45.91;96140.69;5026624;28;20241;-83
2022/08/07 03:22:58;;;;;;;2.83;0.80;;;;;;;13.80;45.92;96145.19;5034866;28;20186;-84
2022/08/07 03:25:24;;;;;;;2.33;0.80;;;;;;;13.79;46.35;96142.72;5027435;28;20652;-83
2022/08/07 03:27:50;;;;;;;3.13;0.70;;;;;;;13.76;46.74;96143.84;5025190;28;20187;-83
2022/08/07 03:30:16;;;;;;;1.73;0.70;;;;;;;13.72;47.08;96132.06;5026092;28;20244;-83
2022/08/07 03:32:43;;;;;;;0.90;0.80;;;;;;;13.73;46.97;96141.53;5023968;28;20183;-83
2022/08/07 03:35:15;;;;;;;1.23;0.63;;;;;;;13.70;47.22;96134.03;5025508;28;20262;-83
2022/08/07 03:37:42;;;;;;;1.27;0.80;;;;;;;13.71;47.37;96135.66;5031757;28;20197;-84
2022/08/07 03:40:08;;;;;;;2.05;1.00;;;;;;;13.86;47.19;96144.53;5017521;28;20211;-84
2022/08/07 03:42:34;;;;;;;1.20;0.90;;;;;;;13.96;47.47;96154.91;5025053;28;20697;-83
2022/08/07 03:45:00;;;;;;;0.77;0.70;;;;;;;13.88;47.71;96144.41;5041742;28;20207;-82
2022/08/07 03:47:26;;;;;;;1.10;0.77;;;;;;;13.87;47.61;96148.81;5023542;28;20195;-83
2022/08/07 03:49:51;;;;;;;1.40;0.83;;;;;;;13.80;47.50;96153.00;5007872;28;20546;-84
2022/08/07 03:52:17;;;;;;;3.40;1.03;;;;;;;13.68;47.93;96142.94;5042291;28;20190;-83
2022/08/07 03:54:42;;;;;;;2.33;0.93;;;;;;;13.67;48.11;96134.31;5021755;28;20226;-83
2022/08/07 03:57:08;;;;;;;0.90;0.83;;;;;;;13.72;48.12;96136.47;5032825;28;20206;-83
2022/08/07 03:59:33;;;;;;;0.93;0.77;;;;;;;13.66;48.31;96139.69;5023704;28;20202;-83
2022/08/07 04:01:59;;;;;;;3.93;0.80;;;;;;;13.64;48.38;96139.84;5025852;28;20702;-83
2022/08/07 04:04:24;;;;;;;1.83;0.83;;;;;;;13.70;48.56;96136.63;5041485;28;20217;-83
2022/08/07 04:06:53;;;;;;;2.73;1.33;;;;;;;13.68;48.56;96143.78;5032986;28;20198;-84
2022/08/07 04:09:19;;;;;;;0.70;0.70;;;;;;;13.65;48.64;96135.44;5022458;28;20258;-84
2022/08/07 04:11:47;;;;;;;1.87;0.90;;;;;;;13.73;48.65;96143.31;5022574;28;20195;-83
2022/08/07 04:14:13;;;;;;;2.50;1.03;;;;;;;13.71;48.92;96142.66;5022552;28;20290;-83
2022/08/07 04:16:38;;;;;;;3.20;1.10;;;;;;;13.85;48.66;96152.53;5026398;28;20218;-83
2022/08/07 04:19:04;;;;;;;1.10;0.80;;;;;;;13.91;48.48;96157.16;5041636;28;20221;-83
2022/08/07 04:21:30;;;;;;;1.17;0.80;;;;;;;14.05;48.49;96158.41;5019804;28;20208;-84
2022/08/07 04:23:55;;;;;;;0.67;0.67;;;;;;;14.11;48.10;96152.53;5013570;28;20237;-83
2022/08/07 04:26:21;;;;;;;2.43;1.03;;;;;;;14.04;48.64;96157.56;5029464;28;20190;-84
2022/08/07 04:28:46;;;;;;;0.83;0.83;;;;;;;14.19;48.28;96155.19;5021461;28;20179;-84
2022/08/07 04:31:11;;;;;;;1.73;0.90;;;;;;;14.22;48.28;96152.25;5021900;28;20546;-83
2022/08/07 04:33:38;;;;;;;0.88;0.82;;;;;;;14.25;48.32;96154.59;5032148;28;20241;-83
2022/08/07 04:36:07;;;;;;;1.60;0.90;;;;;;;14.25;48.21;96157.19;5030873;28;20269;-84
2022/08/07 04:38:33;;;;;;;1.83;0.97;;;;;;;14.24;48.59;96166.00;5032900;28;20624;-84
2022/08/07 04:40:58;;;;;;;1.23;0.77;;;;;;;14.17;48.44;96160.59;5030117;28;20279;-82
2022/08/07 04:43:29;;;;;;;2.77;0.80;;;;;;;14.38;48.12;96160.19;5022365;28;20210;-83
2022/08/07 04:46:17;;;;;;;1.53;0.90;;;;;;;14.34;48.28;96166.72;5032257;28;20186;-84
2022/08/07 04:48:53;;;;;;;1.00;0.83;;;;;;;14.54;47.81;96159.47;5031718;28;20191;-83
2022/08/07 04:51:34;;;;;;;2.60;0.90;;;;;;;14.44;48.17;96164.00;5032269;28;20186;-84
2022/08/07 04:54:02;;;;;;;2.87;1.20;;;;;;;14.59;47.63;96166.88;5021800;28;20210;-81
2022/08/07 04:56:45;;;;;;;2.40;1.00;;;;;;;14.57;47.88;96163.56;5004670;28;20210;-85
2022/08/07 04:59:19;;;;;;;1.07;0.80;;;;;;;15.12;46.96;96169.16;5022399;28;20229;-81
2022/08/07 05:01:49;;;;;;;1.75;1.08;;;;;;;17.25;42.50;96176.47;5022693;28;20179;-81
2022/08/07 05:04:32;;;;;;;1.67;1.00;;;;;;;19.70;37.51;96171.25;5014975;28;20214;-82
2022/08/07 05:07:25;;;;;;;3.50;0.85;;;;;;;21.99;32.48;96173.56;5041876;28;20190;-83
2022/08/07 05:10:03;;;;;;;1.20;0.80;;;;;;;23.35;31.12;96182.44;5034244;28;20223;-84
2022/08/07 05:12:35;;;;;;;1.95;0.70;;;;;;;25.43;27.76;96184.66;5022558;28;20323;-82
2022/08/07 05:15:23;;;;;;;1.75;0.75;;;;;;;25.60;26.98;96180.34;5021477;28;20210;-84
2022/08/07 05:17:54;;;;;;;1.23;0.82;;;;;;;25.69;26.72;96184.28;5037883;28;20273;-84
2022/08/07 05:20:25;;;;;;;3.25;1.33;;;;;;;25.41;27.41;96184.88;5017831;28;20194;-83
2022/08/07 05:22:52;;;;;;;1.88;0.90;;;;;;;25.68;26.75;96190.66;5004732;28;20218;-84
2022/08/07 05:25:19;;;;;;;4.18;0.90;;;;;;;24.42;28.80;96183.34;5036161;28;20249;-84
2022/08/07 05:27:45;;;;;;;2.67;1.15;;;;;;;25.33;26.96;96195.03;5021132;28;20182;-84
2022/08/07 05:30:11;;;;;;;1.67;0.90;;;;;;;23.70;29.64;96195.31;5022349;28;20554;-84
2022/08/07 05:32:36;;;;;;;2.30;1.00;;;;;;;23.34;30.50;96195.91;5024211;28;20192;-83
2022/08/07 05:35:02;;;;;;;2.28;1.00;;;;;;;22.60;31.80;96195.31;5021957;28;20547;-83
2022/08/07 05:37:28;;;;;;;1.65;1.20;;;;;;;21.01;35.00;96191.63;5030295;28;20179;-85
2022/08/07 05:39:54;;;;;;;2.83;1.30;;;;;;;20.47;36.48;96196.81;5057167;28;20198;-82
2022/08/07 05:42:21;;;;;;;1.30;1.20;;;;;;;19.38;38.57;96188.34;5030242;28;20254;-83
2022/08/07 05:44:46;;;;;;;2.05;1.40;;;;;;;18.83;40.33;96192.38;5045594;28;20202;-81
2022/08/07 05:47:12;;;;;;;2.15;1.60;;;;;;;18.50;41.61;96189.25;5064977;28;20171;-82
2022/08/07 05:49:38;;;;;;;3.25;1.98;;;;;;;18.40;42.39;96192.97;5047260;28;20179;-82
2022/08/07 05:52:04;;;;;;;2.55;1.67;;;;;;;18.17;43.34;96196.66;5050267;28;20281;-82
2022/08/07 05:54:29;;;;;;;2.38;1.92;;;;;;;18.87;42.33;96201.50;5021191;28;20210;-82
2022/08/07 05:56:55;;;;;;;3.38;2.03;;;;;;;19.44;41.54;96201.59;5006363;28;20742;-82
2022/08/07 05:59:21;;;;;;;2.50;2.30;;;;;;;20.44;39.81;96205.13;5037883;28;20187;-82
2022/08/07 06:01:47;;;;;;;2.78;2.53;;;;;;;21.89;37.69;96210.16;5019850;28;20605;-82
2022/08/07 06:04:17;;;;;;;3.22;2.40;;;;;;;23.55;34.58;96213.31;5015038;28;20651;-82
2022/08/07 06:06:42;;;;;;;2.15;1.90;;;;;;;24.75;32.46;96217.53;5020465;28;20500;-82
2022/08/07 06:09:07;;;;;;;2.08;1.88;;;;;;;25.54;31.44;96215.81;5021916;28;20222;-82
2022/08/07 06:11:33;;;;;;;3.28;2.10;;;;;;;27.00;28.42;96226.81;5036823;28;20179;-83
2022/08/07 06:13:58;;;;;;;2.65;2.45;;;;;;;27.37;28.09;96232.66;5021198;28;20207;-84
2022/08/07 06:16:26;;;;;;;2.50;2.08;;;;;;;27.57;27.55;96229.59;5031526;28;20243;-83
2022/08/07 06:18:52;;;;;;;3.15;2.28;;;;;;;28.38;26.38;96228.41;5033649;28;20187;-83
2022/08/07 06:21:18;;;;;;;3.10;2.33;;;;;;;27.99;26.79;96226.63;5021808;28;20210;-83
2022/08/07 06:23:43;;;;;;;5.07;2.15;;;;;;;27.91;27.22;96227.84;5030287;28;20214;-83
2022/08/07 06:26:12;;;;;;;2.45;2.20;;;;;;;29.10;25.63;96237.47;5019130;28;20175;-82
2022/08/07 06:28:48;;;;;;;3.80;2.15;;;;;;;28.41;26.24;96233.25;5003664;28;20252;-84
2022/08/07 06:31:13;;;;;;;2.53;2.08;;;;;;;28.84;26.23;96226.41;5017014;28;20718;-83
2022/08/07 06:33:38;;;;;;;3.33;2.53;;;;;;;28.24;27.33;96232.41;5023952;28;20210;-83
2022/08/07 06:36:04;;;;;;;2.85;2.47;;;;;;;28.07;27.67;96236.94;5031183;28;20194;-83
2022/08/07 06:38:29;;;;;;;2.60;2.40;;;;;;;28.00;28.12;96233.59;5026121;28;20208;-83
2022/08/07 06:40:56;;;;;;;4.35;2.17;;;;;;;29.63;25.88;96227.97;5022485;28;20207;-83
2022/08/07 06:43:23;;;;;;;2.20;2.00;;;;;;;29.32;26.75;96222.22;5009423;28;20234;-82
2022/08/07 06:45:49;;;;;;;5.07;2.40;;;;;;;29.62;26.26;96227.16;5009616;28;20185;-83
2022/08/07 06:48:14;;;;;;;2.47;2.28;;;;;;;29.16;26.87;96229.28;5033600;28;20214;-83
2022/08/07 06:50:40;;;;;;;2.20;1.92;;;;;;;29.87;26.41;96230.09;5026450;28;20194;-83
2022/08/07 06:53:09;;;;;;;3.10;2.25;;;;;;;30.65;25.10;96233.19;5024098;28;20272;-83
2022/08/07 06:55:35;;;;;;;3.42;2.20;;;;;;;30.28;25.74;96227.81;5026745;28;20249;-84
2022/08/07 06:58:06;;;;;;;2.38;2.20;;;;;;;28.91;28.00;96223.59;5004682;28;20200;-84
2022/08/07 07:00:37;;;;;;;2.60;2.40;;;;;;;29.76;26.87;96231.03;5036409;28;20246;-84
2022/08/07 07:03:03;;;;;;;5.25;2.10;;;;;;;29.82;26.56;96222.00;5024579;28;20207;-84
2022/08/07 07:05:28;;;;;;;2.42;2.33;;;;;;;29.00;28.25;96225.59;5033302;28;20182;-82
2022/08/07 07:07:54;;;;;;;2.60;2.40;;;;;;;29.56;27.26;96237.00;5023919;28;20183;-82
2022/08/07 07:10:27;;;;;;;2.42;2.17;;;;;;;30.10;26.77;96231.69;5024651;28;20191;-83
2022/08/07 07:12:56;;;;;;;3.25;2.40;;;;;;;29.27;27.45;96227.53;5020301;28;20223;-83
2022/08/07 07:15:25;;;;;;;2.50;2.30;;;;;;;28.57;28.71;96222.81;5005789;28;20683;-83
2022/08/07 07:18:14;;;;;;;3.17;2.20;;;;;;;28.30;29.38;96220.00;5018682;28;20197;-83
2022/08/07 07:20:53;;;;;;;2.50;2.30;;;;;;;29.20;27.86;96224.22;5021058;28;20239;-83
2022/08/07 07:23:19;;;;;;;2.70;2.20;;;;;;;27.86;29.68;96223.22;5025231;28;20550;-84
2022/08/07 07:25:46;;;;;;;4.70;2.65;;;;;;;28.09;29.45;96219.59;5025115;28;20185;-82
2022/08/07 07:28:20;;;;;;;2.60;2.30;;;;;;;27.90;29.08;96220.88;5025311;28;20186;-82
2022/08/07 07:30:52;;;;;;;2.78;2.55;;;;;;;27.09;30.36;96222.78;5021425;28;20186;-81
2022/08/07 07:33:18;;;;;;;2.53;1.80;;;;;;;26.36;31.79;96215.25;5022784;28;20202;-82
2022/08/07 07:35:48;;;;;;;4.80;2.17;;;;;;;26.84;31.31;96217.69;5025172;28;20186;-83
2022/08/07 07:38:14;;;;;;;4.55;2.38;;;;;;;26.54;32.14;96217.81;5025256;28;20198;-82
2022/08/07 07:40:40;;;;;;;2.33;2.15;;;;;;;26.66;31.48;96204.50;5026453;28;20310;-83
2022/08/07 07:43:07;;;;;;;2.35;1.98;;;;;;;26.82;31.22;96209.13;5024799;28;20207;-83
2022/08/07 07:45:32;;;;;;;3.20;1.90;;;;;;;26.36;32.04;96216.03;5026674;28;20194;-82
2022/08/07 07:47:59;;;;;;;3.70;2.00;;;;;;;25.99;32.16;96215.41;5024230;28;20229;-83
2022/08/07 07:50:25;;;;;;;2.05;1.85;;;;;;;25.93;32.24;96216.31;5032235;28;20654;-83
2022/08/07 07:52:51;;;;;;;3.08;2.30;;;;;;;25.29;33.55;96215.94;5034044;28;20191;-83
2022/08/07 07:55:17;;;;;;;3.08;2.20;;;;;;;24.54;35.13;96218.75;5022802;28;20187;-84
2022/08/07 07:57:43;;;;;;;4.10;2.65;;;;;;;23.65;36.78;96206.56;5056550;28;20176;-83
2022/08/07 08:00:10;;;;;;;2.17;1.95;;;;;;;23.72;37.06;96211.81;5050220;28;20233;-82
2022/08/07 08:02:36;;;;;;;2.45;1.90;;;;;;;23.22;37.87;96214.28;5041453;28;20188;-83
2022/08/07 08:05:04;;;;;;;3.03;2.40;;;;;;;22.45;39.99;96205.31;5029251;28;20210;-83
2022/08/07 08:07:30;;;;;;;2.92;2.10;;;;;;;21.92;39.13;96213.25;5029183;28;20612;-83
2022/08/07 08:09:56;;;;;;;3.08;2.28;;;;;;;21.90;39.64;96201.22;5025849;28;20573;-83
2022/08/07 08:12:21;;;;;;;2.08;1.88;;;;;;;22.24;39.11;96209.00;5026868;28;20198;-82
2022/08/07 08:14:47;;;;;;;4.80;1.88;;;;;;;21.77;39.60;96205.47;5036356;28;20206;-83
2022/08/07 08:17:14;;;;;;;2.17;1.77;;;;;;;21.98;38.98;96207.13;5026396;28;20195;-84
2022/08/07 08:19:40;;;;;;;2.15;1.92;;;;;;;21.61;39.56;96210.34;5028855;28;20207;-83
2022/08/07 08:27:37;;;;;;;3.65;1.65;;;;;;;21.75;39.04;96206.72;5037355;28;20268;-84
2022/08/07 08:30:06;;;;;;;2.22;2.03;;;;;;;21.75;38.79;96210.16;5045884;28;20174;-83
2022/08/07 08:32:36;;;;;;;3.97;2.00;;;;;;;21.96;39.03;96201.22;5025241;28;20270;-84
2022/08/07 08:35:02;;;;;;;1.88;1.77;;;;;;;21.78;38.61;96209.75;5004981;28;20214;-83
2022/08/07 08:37:29;;;;;;;2.65;1.73;;;;;;;21.63;39.38;96208.28;5028047;28;20558;-83
2022/08/07 08:39:55;;;;;;;3.05;1.73;;;;;;;22.03;38.44;96203.88;5009535;28;20277;-83
2022/08/07 08:42:36;;;;;;;2.38;1.60;;;;;;;22.53;37.29;96194.53;5023681;28;20199;-84
2022/08/07 08:45:15;;;;;;;2.90;1.80;;;;;;;22.22;36.63;96203.09;5023338;28;20206;-83
2022/08/07 08:47:55;;;;;;;1.58;1.48;;;;;;;22.48;36.14;96202.25;5022178;28;20186;-83
2022/08/07 08:50:23;;;;;;;2.38;1.70;;;;;;;22.28;36.60;96196.19;5020532;28;20197;-83
2022/08/07 08:52:56;;;;;;;3.97;1.58;;;;;;;22.52;35.38;96205.28;5022893;28;20278;-84
2022/08/07 08:55:39;;;;;;;1.65;1.52;;;;;;;22.28;36.27;96194.34;5021183;28;20210;-83
2022/08/07 08:58:55;;;;;;;1.20;1.10;;;;;;;21.96;33.60;96200.41;5019967;28;20218;-83
2022/08/07 09:01:25;;;;;;;2.25;1.40;;;;;;;22.06;34.07;96198.19;5001201;28;20964;-83
2022/08/07 09:04:22;;;;;;;1.70;1.60;;;;;;;22.06;34.75;96206.09;5005903;28;20214;-83
2022/08/07 09:06:59;;;;;;;1.88;1.45;;;;;;;21.67;36.26;96204.25;5005931;28;20646;-83
2022/08/07 09:09:40;;;;;;;1.92;1.30;;;;;;;22.04;34.45;96195.75;5022459;28;20183;-84
2022/08/07 09:12:11;;;;;;;1.80;1.60;;;;;;;21.99;35.14;96192.06;5025915;28;20186;-83
2022/08/07 09:15:03;;;;;;;1.92;1.45;;;;;;;22.18;33.88;96193.94;5031720;28;20241;-84
2022/08/07 09:17:53;;;;;;;1.20;1.10;;;;;;;22.65;33.09;96176.16;5023822;28;20663;-84
2022/08/07 09:20:32;;;;;;;1.80;1.50;;;;;;;23.17;33.95;96182.34;5024050;28;20726;-84
2022/08/07 09:23:16;;;;;;;1.42;1.20;;;;;;;23.10;33.40;96182.34;5024225;28;20186;-84
2022/08/07 09:26:10;;;;;;;1.52;1.30;;;;;;;23.31;31.91;96181.22;5020188;28;20182;-83
2022/08/07 09:28:43;;;;;;;1.30;1.20;;;;;;;23.17;32.36;96191.09;5019032;28;20206;-83
2022/08/07 09:31:27;;;;;;;1.75;1.10;;;;;;;23.01;31.72;96206.63;5022436;28;20262;-82
2022/08/07 09:34:07;;;;;;;2.38;1.20;;;;;;;22.37;33.01;96183.56;5021999;28;20203;-83
2022/08/07 09:36:41;;;;;;;2.47;1.60;;;;;;;22.59;33.33;96192.88;5020759;28;20281;-83
2022/08/07 09:39:26;;;;;;;3.50;1.60;;;;;;;22.59;34.16;96192.88;5022210;28;20191;-83
2022/08/07 09:42:01;;;;;;;1.92;1.52;;;;;;;22.67;34.25;96192.66;5004392;28;20246;-82
2022/08/07 09:44:48;;;;;;;2.33;1.65;;;;;;;23.26;34.25;96196.16;5004574;28;20209;-82
2022/08/07 09:47:22;;;;;;;2.47;1.70;;;;;;;23.55;33.75;96186.81;5020840;28;20289;-83
2022/08/07 09:49:56;;;;;;;3.10;1.50;;;;;;;23.25;34.51;96191.88;5034725;28;20640;-82
2022/08/07 09:52:41;;;;;;;3.50;1.90;;;;;;;22.91;35.68;96174.50;5023819;28;20181;-83
2022/08/07 09:55:16;;;;;;;1.75;1.65;;;;;;;23.11;35.05;96183.16;5019172;28;20279;-83
2022/08/07 09:57:49;;;;;;;2.20;1.83;;;;;;;23.17;33.80;96175.19;5028300;28;20186;-83
2022/08/07 10:00:19;;;;;;;2.67;1.70;;;;;;;22.50;35.15;96172.94;5032728;28;20694;-83
2022/08/07 10:03:05;;;;;;;3.38;1.55;;;;;;;22.84;35.28;96167.38;5022802;28;20186;-83
2022/08/07 10:05:54;;;;;;;3.35;1.98;;;;;;;23.18;35.08;96168.88;5037003;28;20190;-83
2022/08/07 10:08:57;;;;;;;2.65;1.60;;;;;;;23.21;33.17;96158.88;5025826;28;20186;-83
2022/08/07 10:11:50;;;;;;;1.83;1.00;;;;;;;23.33;30.87;96167.78;5038863;28;20191;-83
2022/08/07 10:14:50;;;;;;;1.33;1.02;;;;;;;22.78;30.89;96149.63;5041932;28;20202;-83
2022/08/07 10:17:33;;;;;;;1.95;1.00;;;;;;;23.33;30.37;96147.41;5021589;28;20183;-83
2022/08/07 10:20:24;;;;;;;2.67;0.90;;;;;;;23.68;28.07;96147.00;5023997;28;20203;-83
2022/08/07 10:23:19;;;;;;;1.30;0.95;;;;;;;23.78;28.01;96144.69;5040655;28;20240;-83
2022/08/07 10:26:00;;;;;;;1.13;0.80;;;;;;;24.04;27.95;96148.16;5042348;28;20178;-83
2022/08/07 10:28:35;;;;;;;2.58;0.70;;;;;;;23.67;28.30;96146.16;5042905;28;20179;-83
2022/08/07 10:31:20;;;;;;;1.45;1.00;;;;;;;24.23;27.70;96144.50;5024912;28;20186;-83
2022/08/07 10:33:55;;;;;;;1.50;1.00;;;;;;;24.36;27.87;96136.44;5024806;28;20202;-83
2022/08/07 10:36:29;;;;;;;1.13;0.82;;;;;;;23.67;28.46;96143.50;5024005;28;20655;-84
2022/08/07 10:39:46;;;;;;;1.25;1.15;;;;;;;23.57;28.64;96126.44;5022844;28;20217;-83
2022/08/07 10:42:33;;;;;;;2.03;1.02;;;;;;;22.94;28.27;96129.03;4994836;28;20287;-83
2022/08/07 10:45:11;;;;;;;1.40;0.73;;;;;;;23.03;28.27;96123.28;5028130;28;20294;-83
2022/08/07 10:47:44;;;;;;;2.53;1.10;;;;;;;23.74;28.02;96130.22;5036422;28;20185;-84
2022/08/07 10:50:23;;;;;;;1.38;1.00;;;;;;;23.97;27.58;96114.53;5022257;28;20215;-83
2022/08/07 10:53:10;;;;;;;0.82;0.80;;;;;;;23.47;26.70;96121.59;5025429;28;20215;-84
2022/08/07 10:56:14;;;;;;;4.15;0.90;;;;;;;23.82;27.06;96127.31;5021678;28;20266;-83
2022/08/07 10:59:05;;;;;;;1.13;0.82;;;;;;;24.18;27.87;96123.91;5011140;28;20798;-84
2022/08/07 11:01:43;;;;;;;1.15;0.70;;;;;;;24.35;25.27;96118.88;5019256;28;20234;-84
2022/08/07 11:04:16;;;;;;;1.05;0.95;;;;;;;24.00;25.97;96114.09;5025438;28;20206;-84
2022/08/07 11:06:53;;;;;;;2.20;0.90;;;;;;;24.21;25.95;96106.78;5042468;28;20194;-84
2022/08/07 11:09:23;;;;;;;1.50;0.88;;;;;;;23.69;26.64;96109.66;5021960;28;20183;-83
2022/08/07 11:12:07;;;;;;;2.05;0.90;;;;;;;23.77;25.32;96113.91;5010477;28;20186;-84
2022/08/07 11:14:36;;;;;;;1.23;0.80;;;;;;;23.97;25.64;96106.56;5041955;28;20218;-83
2022/08/07 11:17:20;;;;;;;5.65;0.90;;;;;;;24.33;26.48;96102.38;5025693;28;20713;-84
2022/08/07 11:19:50;;;;;;;3.42;0.80;;;;;;;24.73;25.77;96105.38;5023935;28;20198;-83
2022/08/07 11:22:30;;;;;;;0.68;0.68;;;;;;;25.04;25.48;96100.97;5039595;28;20209;-83
2022/08/07 11:25:10;;;;;;;1.15;1.08;;;;;;;25.07;25.43;96098.66;5033671;28;20196;-84
2022/08/07 11:27:50;;;;;;;1.70;0.80;;;;;;;24.98;25.71;96107.94;5054568;28;20243;-84
2022/08/07 11:30:17;;;;;;;0.80;0.70;;;;;;;25.37;25.46;96098.66;5041090;28;20195;-83
2022/08/07 11:33:01;;;;;;;1.10;1.00;;;;;;;25.84;24.84;96089.97;5026077;28;20248;-84
2022/08/07 11:35:54;;;;;;;0.80;0.80;;;;;;;25.43;24.76;96094.25;5036564;28;20167;-83
2022/08/07 11:38:26;;;;;;;1.88;1.00;;;;;;;25.67;25.46;96090.63;5023500;28;20221;-84
2022/08/07 11:41:13;;;;;;;0.80;0.80;;;;;;;25.45;25.22;96102.84;5019121;28;20659;-84
2022/08/07 11:43:53;;;;;;;1.55;0.88;;;;;;;24.86;25.89;96086.66;5019707;28;20211;-83
2022/08/07 11:46:35;;;;;;;0.70;0.70;;;;;;;25.43;25.31;96084.44;5004542;28;20198;-82
2022/08/07 11:49:28;;;;;;;1.15;0.77;;;;;;;25.26;25.43;96080.00;5022410;28;20187;-84
2022/08/07 11:52:18;;;;;;;0.73;0.70;;;;;;;25.86;24.59;96078.06;5020610;28;20203;-84
2022/08/07 11:55:25;;;;;;;0.70;0.70;;;;;;;26.01;24.28;96074.97;5034480;28;20221;-84
2022/08/07 11:57:56;;;;;;;1.55;0.82;;;;;;;25.91;23.46;96077.38;5034594;28;20250;-83